createdAt,value
2023-08-07T00:01:18.206Z,99.88
2023-08-07T00:03:49.822Z,99.95
2023-08-07T00:06:21.480Z,99.82
2023-08-07T00:08:53.040Z,99.81
2023-08-07T00:11:24.669Z,99.78
2023-08-07T00:13:56.270Z,99.96
2023-08-07T00:16:27.960Z,99.78
2023-08-07T00:18:59.542Z,99.85
2023-08-07T00:21:31.349Z,99.78
2023-08-07T00:24:02.959Z,99.93
2023-08-07T00:26:34.670Z,99.76
2023-08-07T00:29:06.684Z,99.72
2023-08-07T00:31:38.358Z,99.73
2023-08-07T00:34:10.848Z,99.69
2023-08-07T00:36:42.394Z,99.65
2023-08-07T00:39:12.529Z,99.82
2023-08-07T00:41:45.417Z,99.67
2023-08-07T00:44:17.250Z,99.40
2023-08-07T00:46:49.175Z,99.36
2023-08-07T00:49:22.355Z,99.51
2023-08-07T00:51:54.366Z,99.55
2023-08-07T00:54:27.392Z,99.45
2023-08-07T00:57:04.556Z,99.29
2023-08-07T00:59:36.377Z,99.31
2023-08-07T01:02:09.219Z,99.26
2023-08-07T01:04:41.639Z,99.44
2023-08-07T01:07:13.312Z,99.18
2023-08-07T01:09:44.946Z,99.20
2023-08-07T01:12:21.620Z,99.39
2023-08-07T01:15:00.586Z,99.24
2023-08-07T01:17:34.839Z,99.15
2023-08-07T01:20:08.578Z,99.18
2023-08-07T01:22:40.222Z,99.16
2023-08-07T01:25:11.872Z,98.93
2023-08-07T01:27:52.455Z,99.05
2023-08-07T01:30:32.287Z,98.95
2023-08-07T01:33:12.266Z,99.11
2023-08-07T01:35:45.855Z,99.03
2023-08-07T01:38:18.437Z,99.04
2023-08-07T01:40:50.984Z,99.35
2023-08-07T01:43:24.914Z,99.19
2023-08-07T01:45:56.514Z,99.38
2023-08-07T01:48:28.222Z,99.42
2023-08-07T01:50:59.838Z,99.38
2023-08-07T01:53:31.424Z,99.75
2023-08-07T01:56:04.012Z,99.57
2023-08-07T01:58:35.634Z,99.59
2023-08-07T02:01:07.482Z,99.74
2023-08-07T02:03:39.117Z,99.73
2023-08-07T02:06:10.833Z,99.67
2023-08-07T02:08:40.910Z,99.71
2023-08-07T02:11:12.394Z,99.54
2023-08-07T02:13:42.543Z,99.48
2023-08-07T02:16:14.370Z,99.64
2023-08-07T02:18:46.104Z,99.79
2023-08-07T02:21:18.133Z,99.70
2023-08-07T02:23:49.722Z,99.70
2023-08-07T02:26:21.399Z,99.62
2023-08-07T02:28:53.117Z,99.32
2023-08-07T02:31:24.935Z,99.28
2023-08-07T02:33:56.502Z,99.53
2023-08-07T02:36:26.591Z,99.57
2023-08-07T02:38:58.246Z,99.57
2023-08-07T02:41:29.810Z,99.60
2023-08-07T02:44:01.581Z,99.60
2023-08-07T02:46:33.340Z,99.35
2023-08-07T02:49:05.859Z,99.44
2023-08-07T02:51:37.460Z,99.62
2023-08-07T02:54:09.203Z,99.64
2023-08-07T02:56:40.869Z,99.28
2023-08-07T02:59:12.429Z,99.33
2023-08-07T03:01:44.510Z,99.34
2023-08-07T03:04:16.073Z,99.55
2023-08-07T03:06:48.026Z,99.35
2023-08-07T03:09:19.617Z,99.16
2023-08-07T03:11:51.188Z,99.42
2023-08-07T03:14:22.685Z,99.30
2023-08-07T03:16:52.879Z,99.67
2023-08-07T03:19:24.665Z,99.55
2023-08-07T03:21:56.217Z,99.89
2023-08-07T03:24:28.088Z,99.98
2023-08-07T03:26:59.904Z,99.95
2023-08-07T03:29:32.149Z,100.00
2023-08-07T03:32:03.844Z,100.00
2023-08-07T03:34:36.135Z,100.00
2023-08-07T03:37:08.731Z,100.00
2023-08-07T03:39:40.455Z,100.00
2023-08-07T03:42:11.919Z,100.00
2023-08-07T03:44:43.987Z,100.00
2023-08-07T03:47:17.245Z,100.00
2023-08-07T03:49:49.076Z,100.00
2023-08-07T03:52:20.651Z,100.00
2023-08-07T03:54:52.289Z,100.00
2023-08-07T03:57:23.830Z,100.00
2023-08-07T03:59:56.305Z,100.00
2023-08-07T04:02:28.953Z,100.00
2023-08-07T04:05:00.965Z,100.00
2023-08-07T04:07:32.491Z,100.00
2023-08-07T04:10:04.261Z,100.00
2023-08-07T04:12:36.255Z,100.00
2023-08-07T04:15:10.127Z,100.00
2023-08-07T04:17:42.498Z,100.00
2023-08-07T04:20:14.535Z,100.00
2023-08-07T04:22:46.405Z,100.00
2023-08-07T04:25:18.293Z,100.00
2023-08-07T04:27:49.863Z,100.00
2023-08-07T04:30:21.431Z,100.00
2023-08-07T04:32:53.093Z,100.00
2023-08-07T04:35:25.029Z,100.00
2023-08-07T04:37:56.734Z,100.00
2023-08-07T04:40:28.380Z,100.00
2023-08-07T04:43:00.043Z,100.00
2023-08-07T04:45:31.613Z,100.00
2023-08-07T04:48:01.669Z,100.00
2023-08-07T04:50:34.079Z,100.00
2023-08-07T04:53:06.110Z,100.00
2023-08-07T04:55:37.658Z,100.00
2023-08-07T04:58:07.762Z,100.00
2023-08-07T05:00:39.392Z,100.00
2023-08-07T05:03:11.158Z,100.00
2023-08-07T05:05:43.078Z,100.00
2023-08-07T05:08:14.651Z,100.00
2023-08-07T05:10:46.157Z,100.00
2023-08-07T05:13:16.299Z,100.00
2023-08-07T05:15:50.696Z,100.00
2023-08-07T05:18:22.264Z,100.00
2023-08-07T05:20:53.994Z,100.00
2023-08-07T05:23:25.712Z,100.00
2023-08-07T05:25:57.312Z,100.00
2023-08-07T05:28:29.695Z,100.00
2023-08-07T05:31:01.219Z,100.00
2023-08-07T05:33:32.874Z,100.00
2023-08-07T05:36:06.584Z,100.00
2023-08-07T05:38:38.552Z,100.00
2023-08-07T05:41:10.711Z,100.00
2023-08-07T05:43:42.181Z,100.00
2023-08-07T05:46:13.708Z,100.00
2023-08-07T05:48:45.316Z,100.00
2023-08-07T05:51:16.861Z,100.00
2023-08-07T05:53:48.411Z,100.00
2023-08-07T05:56:20.180Z,100.00
2023-08-07T05:58:51.823Z,100.00
2023-08-07T06:01:24.416Z,100.00
2023-08-07T06:03:56.094Z,100.00
2023-08-07T06:06:29.163Z,100.00
2023-08-07T06:09:01.241Z,100.00
2023-08-07T06:11:33.169Z,100.00
2023-08-07T06:14:04.976Z,100.00
2023-08-07T06:16:36.800Z,100.00
2023-08-07T06:19:20.916Z,100.00
2023-08-07T06:21:57.579Z,100.00
2023-08-07T06:24:29.703Z,100.00
2023-08-07T06:27:01.360Z,99.97
2023-08-07T06:29:32.909Z,99.98
2023-08-07T06:32:05.318Z,99.98
2023-08-07T06:34:39.681Z,100.00
2023-08-07T06:37:11.337Z,100.00
2023-08-07T06:39:43.002Z,100.00
2023-08-07T06:42:14.517Z,99.98
2023-08-07T06:44:47.874Z,99.35
2023-08-07T06:47:19.550Z,99.27
2023-08-07T06:49:51.257Z,99.24
2023-08-07T06:52:22.891Z,98.61
2023-08-07T06:54:54.633Z,98.65
2023-08-07T06:57:26.191Z,98.67
2023-08-07T06:59:57.774Z,98.75
2023-08-07T07:02:29.379Z,98.84
2023-08-07T07:05:01.315Z,98.75
2023-08-07T07:07:33.017Z,98.81
2023-08-07T07:10:04.922Z,98.58
2023-08-07T07:12:36.677Z,98.65
2023-08-07T07:15:10.167Z,98.71
2023-08-07T07:17:41.790Z,98.37
2023-08-07T07:20:14.857Z,98.54
2023-08-07T07:22:46.391Z,98.79
2023-08-07T07:25:16.609Z,98.81
2023-08-07T07:27:48.236Z,98.50
2023-08-07T07:30:19.848Z,98.76
2023-08-07T07:32:52.216Z,98.44
2023-08-07T07:35:23.829Z,98.36
2023-08-07T07:37:55.392Z,98.61
2023-08-07T07:40:25.509Z,98.54
2023-08-07T07:42:57.106Z,98.62
2023-08-07T07:45:28.750Z,98.91
2023-08-07T07:48:00.375Z,98.87
2023-08-07T07:50:32.017Z,98.95
2023-08-07T07:53:03.654Z,99.12
2023-08-07T07:55:35.452Z,99.19
2023-08-07T07:58:07.367Z,99.44
2023-08-07T08:00:38.976Z,99.58
2023-08-07T08:03:11.386Z,99.32
2023-08-07T08:05:43.224Z,99.65
2023-08-07T08:08:14.825Z,99.56
2023-08-07T08:10:48.330Z,99.55
2023-08-07T08:13:20.140Z,99.36
2023-08-07T08:15:51.770Z,99.35
2023-08-07T08:18:23.535Z,99.14
2023-08-07T08:20:56.175Z,99.24
2023-08-07T08:23:27.723Z,99.32
2023-08-07T08:25:59.383Z,99.11
2023-08-07T08:28:31.187Z,99.09
2023-08-07T08:31:02.758Z,98.32
2023-08-07T08:33:34.441Z,98.63
2023-08-07T08:36:06.714Z,98.71
2023-08-07T08:38:38.302Z,99.06
2023-08-07T08:41:11.328Z,99.33
2023-08-07T08:43:45.892Z,99.39
2023-08-07T08:46:21.159Z,99.77
2023-08-07T08:48:58.677Z,99.82
2023-08-07T08:51:30.502Z,99.89
2023-08-07T08:54:03.600Z,99.96
2023-08-07T08:56:35.497Z,99.93
2023-08-07T08:59:07.554Z,99.94
2023-08-07T09:01:40.571Z,99.94
2023-08-07T09:04:12.509Z,100.00
2023-08-07T09:06:44.693Z,100.00
2023-08-07T09:09:18.641Z,100.00
2023-08-07T09:11:50.823Z,100.00
2023-08-07T09:14:26.595Z,100.00
2023-08-07T09:17:00.654Z,100.00
2023-08-07T09:19:32.945Z,100.00
2023-08-07T09:22:04.790Z,99.97
2023-08-07T09:24:36.340Z,99.95
2023-08-07T09:27:10.494Z,99.93
2023-08-07T09:29:45.255Z,99.89
2023-08-07T09:32:19.564Z,100.00
2023-08-07T09:34:53.299Z,99.98
2023-08-07T09:37:25.404Z,99.72
2023-08-07T09:39:56.960Z,99.55
2023-08-07T09:42:32.400Z,99.44
2023-08-07T09:45:05.113Z,99.43
2023-08-07T09:47:37.292Z,99.29
2023-08-07T09:50:17.302Z,99.43
2023-08-07T09:52:51.717Z,99.39
2023-08-07T09:55:23.437Z,99.13
2023-08-07T09:57:55.827Z,98.37
2023-08-07T10:00:27.688Z,98.59
2023-08-07T10:02:59.877Z,98.68
2023-08-07T10:05:32.226Z,98.41
2023-08-07T10:08:05.411Z,98.59
2023-08-07T10:10:37.230Z,98.17
2023-08-07T10:13:09.788Z,96.96
2023-08-07T10:15:43.179Z,96.85
2023-08-07T10:18:14.977Z,95.61
2023-08-07T10:20:47.235Z,94.70
2023-08-07T10:23:20.103Z,95.31
2023-08-07T10:25:54.258Z,96.15
2023-08-07T10:28:29.974Z,96.39
2023-08-07T10:31:02.771Z,96.11
2023-08-07T10:33:35.826Z,96.78
2023-08-07T10:36:13.635Z,96.68
2023-08-07T10:38:45.325Z,96.98
2023-08-07T10:41:20.059Z,97.08
2023-08-07T10:43:51.677Z,97.03
2023-08-07T10:46:25.642Z,97.36
2023-08-07T10:48:59.510Z,97.26
2023-08-07T10:51:33.456Z,97.08
2023-08-07T10:54:06.135Z,97.28
2023-08-07T10:56:39.076Z,97.14
2023-08-07T10:59:14.505Z,97.30
2023-08-07T11:01:52.596Z,97.52
2023-08-07T11:04:27.286Z,97.44
2023-08-07T11:06:59.342Z,97.96
2023-08-07T11:09:31.192Z,98.24
2023-08-07T11:12:03.060Z,98.31
2023-08-07T11:14:35.100Z,98.06
2023-08-07T11:17:08.478Z,97.91
2023-08-07T11:19:40.667Z,97.67
2023-08-07T11:22:12.562Z,98.12
2023-08-07T11:24:44.397Z,98.21
2023-08-07T11:27:15.981Z,98.59
2023-08-07T11:29:51.182Z,98.45
2023-08-07T11:32:24.383Z,98.84
2023-08-07T11:34:55.997Z,98.84
2023-08-07T11:37:27.615Z,99.13
2023-08-07T11:40:05.091Z,99.18
2023-08-07T11:42:36.686Z,98.68
2023-08-07T11:45:10.839Z,98.82
2023-08-07T11:47:42.510Z,98.70
2023-08-07T11:50:14.880Z,97.92
2023-08-07T11:52:47.025Z,97.35
2023-08-07T11:55:19.472Z,97.56
2023-08-07T11:57:51.348Z,97.65
2023-08-07T12:00:27.963Z,97.80
2023-08-07T12:02:59.507Z,97.57
2023-08-07T12:05:39.762Z,97.76
2023-08-07T12:08:13.398Z,97.79
2023-08-07T12:10:45.528Z,97.47
2023-08-07T12:13:17.171Z,97.26
2023-08-07T12:15:48.906Z,96.98
2023-08-07T12:18:22.230Z,97.05
2023-08-07T12:20:54.880Z,96.82
2023-08-07T12:23:26.484Z,97.06
2023-08-07T12:25:58.359Z,97.26
2023-08-07T12:28:30.045Z,96.89
2023-08-07T12:31:01.617Z,96.64
2023-08-07T12:33:33.526Z,96.54
2023-08-07T12:38:50.768Z,96.30
2023-08-07T12:43:57.017Z,96.99
2023-08-07T12:49:04.235Z,97.15
2023-08-07T12:51:35.890Z,96.91
2023-08-07T12:54:07.583Z,96.50
2023-08-07T12:56:39.241Z,96.71
2023-08-07T12:59:10.829Z,97.19
2023-08-07T13:01:42.386Z,96.95
2023-08-07T13:04:16.361Z,96.68
2023-08-07T13:06:50.694Z,96.82
2023-08-07T13:09:22.601Z,96.65
2023-08-07T13:11:54.200Z,96.56
2023-08-07T13:14:25.764Z,96.72
2023-08-07T13:16:57.750Z,96.89
2023-08-07T13:19:29.617Z,96.76
2023-08-07T13:21:59.903Z,96.69
2023-08-07T13:24:31.452Z,96.64
2023-08-07T13:27:04.521Z,96.61
2023-08-07T13:29:36.742Z,96.38
2023-08-07T13:32:10.678Z,96.64
2023-08-07T13:34:42.345Z,96.70
2023-08-07T13:37:13.930Z,96.57
2023-08-07T13:39:45.464Z,96.99
2023-08-07T13:42:17.121Z,97.03
2023-08-07T13:44:48.736Z,97.07
2023-08-07T13:47:21.805Z,96.99
2023-08-07T13:49:54.032Z,97.00
2023-08-07T13:52:25.747Z,97.67
2023-08-07T13:54:57.260Z,97.85
2023-08-07T13:57:28.899Z,97.67
2023-08-07T14:00:00.580Z,97.68
2023-08-07T14:02:33.039Z,97.76
2023-08-07T14:05:05.439Z,97.76
2023-08-07T14:07:37.106Z,97.60
2023-08-07T14:10:10.171Z,97.85
2023-08-07T14:12:41.793Z,98.25
2023-08-07T14:15:14.074Z,97.93
2023-08-07T14:17:45.651Z,98.17
2023-08-07T14:20:17.364Z,98.31
2023-08-07T14:22:48.969Z,97.78
2023-08-07T14:25:22.470Z,98.02
2023-08-07T14:27:54.947Z,97.82
2023-08-07T14:30:26.829Z,97.66
2023-08-07T14:32:58.427Z,97.79
2023-08-07T14:35:30.153Z,98.12
2023-08-07T14:38:01.820Z,98.38
2023-08-07T14:40:33.552Z,98.12
2023-08-07T14:43:05.203Z,97.90
2023-08-07T14:45:38.388Z,97.96
2023-08-07T14:48:10.048Z,98.48
2023-08-07T14:50:41.610Z,98.34
2023-08-07T14:53:13.160Z,97.82
2023-08-07T14:55:45.617Z,97.19
2023-08-07T14:58:17.486Z,96.43
2023-08-07T15:00:50.745Z,96.16
2023-08-07T15:03:22.335Z,95.91
2023-08-07T15:05:53.973Z,96.32
2023-08-07T15:08:25.609Z,96.08
2023-08-07T15:10:57.200Z,95.78
2023-08-07T15:13:28.951Z,95.76
2023-08-07T15:16:00.642Z,95.06
2023-08-07T15:18:32.361Z,94.97
2023-08-07T15:21:04.016Z,94.65
2023-08-07T15:23:35.795Z,94.33
2023-08-07T15:26:07.607Z,94.49
2023-08-07T15:28:39.175Z,94.61
2023-08-07T15:31:10.898Z,95.05
2023-08-07T15:33:43.502Z,95.19
2023-08-07T15:36:15.161Z,95.41
2023-08-07T15:38:46.968Z,95.23
2023-08-07T15:41:18.903Z,95.41
2023-08-07T15:43:51.341Z,95.15
2023-08-07T15:46:22.984Z,95.31
2023-08-07T15:48:56.334Z,95.49
2023-08-07T15:51:28.090Z,95.55
2023-08-07T15:53:59.860Z,95.02
2023-08-07T15:56:31.370Z,94.60
2023-08-07T15:59:02.989Z,93.86
2023-08-07T16:01:34.760Z,93.97
2023-08-07T16:04:06.799Z,93.92
2023-08-07T16:06:39.463Z,93.99
2023-08-07T16:09:11.154Z,94.22
2023-08-07T16:11:42.775Z,94.23
2023-08-07T16:14:14.602Z,94.27
2023-08-07T16:16:46.284Z,94.09
2023-08-07T16:19:18.007Z,93.78
2023-08-07T16:21:49.757Z,93.71
2023-08-07T16:24:21.401Z,93.71
2023-08-07T16:26:53.084Z,93.43
2023-08-07T16:29:24.696Z,93.11
2023-08-07T16:31:57.355Z,92.91
2023-08-07T16:34:29.249Z,93.02
2023-08-07T16:37:01.314Z,93.39
2023-08-07T16:39:33.199Z,93.20
2023-08-07T16:42:05.380Z,93.44
2023-08-07T16:44:37.018Z,93.52
2023-08-07T16:47:09.078Z,93.21
2023-08-07T16:49:41.432Z,93.22
2023-08-07T16:52:13.041Z,92.83
2023-08-07T16:54:45.031Z,92.85
2023-08-07T16:57:16.651Z,93.03
2023-08-07T16:59:48.713Z,93.33
2023-08-07T17:02:20.354Z,93.46
2023-08-07T17:04:51.938Z,93.22
2023-08-07T17:07:23.556Z,93.25
2023-08-07T17:09:55.084Z,93.43
2023-08-07T17:12:26.740Z,93.56
2023-08-07T17:14:58.292Z,93.91
2023-08-07T17:17:29.953Z,94.10
2023-08-07T17:20:01.690Z,94.29
2023-08-07T17:22:33.593Z,94.07
2023-08-07T17:25:06.170Z,94.04
2023-08-07T17:27:37.983Z,94.21
2023-08-07T17:30:11.482Z,94.33
2023-08-07T17:32:43.298Z,94.21
2023-08-07T17:35:14.918Z,94.35
2023-08-07T17:37:46.580Z,94.27
2023-08-07T17:40:18.330Z,94.26
2023-08-07T17:42:49.947Z,94.26
2023-08-07T17:45:21.666Z,94.39
2023-08-07T17:47:54.631Z,94.46
2023-08-07T17:50:26.338Z,94.60
2023-08-07T17:52:58.096Z,94.48
2023-08-07T17:55:31.170Z,94.55
2023-08-07T17:58:03.940Z,94.31
2023-08-07T18:00:35.703Z,94.45
2023-08-07T18:03:08.697Z,94.14
2023-08-07T18:05:40.696Z,94.34
2023-08-07T18:08:12.383Z,94.62
2023-08-07T18:10:43.979Z,94.74
2023-08-07T18:13:15.508Z,94.78
2023-08-07T18:15:47.202Z,94.92
2023-08-07T18:18:19.064Z,95.05
2023-08-07T18:20:50.670Z,95.00
2023-08-07T18:23:22.565Z,95.19
2023-08-07T18:25:54.504Z,94.93
2023-08-07T18:28:26.219Z,95.06
2023-08-07T18:30:57.989Z,95.27
2023-08-07T18:33:29.743Z,95.25
2023-08-07T18:36:01.846Z,95.30
2023-08-07T18:38:33.409Z,95.53
2023-08-07T18:41:07.059Z,95.56
2023-08-07T18:43:39.435Z,95.71
2023-08-07T18:46:12.815Z,95.41
2023-08-07T18:48:44.517Z,95.39
2023-08-07T18:51:16.181Z,95.51
2023-08-07T18:53:48.081Z,95.52
2023-08-07T18:56:20.063Z,95.92
2023-08-07T18:58:52.961Z,95.51
2023-08-07T19:01:24.864Z,95.60
2023-08-07T19:03:56.747Z,95.88
2023-08-07T19:06:30.286Z,95.95
2023-08-07T19:09:01.920Z,96.01
2023-08-07T19:11:33.691Z,96.06
2023-08-07T19:14:06.345Z,96.28
2023-08-07T19:16:38.067Z,96.34
2023-08-07T19:19:09.814Z,96.14
2023-08-07T19:21:41.708Z,96.22
2023-08-07T19:24:16.066Z,96.11
2023-08-07T19:26:48.040Z,96.25
2023-08-07T19:29:19.655Z,96.44
2023-08-07T19:31:51.335Z,96.76
2023-08-07T19:34:23.182Z,96.56
2023-08-07T19:36:59.047Z,96.73
2023-08-07T19:39:31.049Z,97.02
2023-08-07T19:42:03.188Z,96.84
2023-08-07T19:44:38.633Z,96.87
2023-08-07T19:47:14.235Z,96.92
2023-08-07T19:49:54.021Z,97.13
2023-08-07T19:52:27.883Z,97.22
2023-08-07T19:54:59.543Z,97.34
2023-08-07T19:57:31.672Z,97.29
2023-08-07T20:00:05.593Z,97.30
2023-08-07T20:02:37.467Z,97.39
2023-08-07T20:05:10.553Z,97.43
2023-08-07T20:07:42.223Z,97.53
2023-08-07T20:10:14.653Z,97.39
2023-08-07T20:12:47.519Z,97.21
2023-08-07T20:15:20.310Z,97.35
2023-08-07T20:17:53.720Z,97.24
2023-08-07T20:20:26.082Z,97.02
2023-08-07T20:22:57.813Z,97.18
2023-08-07T20:25:30.803Z,97.06
2023-08-07T20:28:02.362Z,96.90
2023-08-07T20:30:34.349Z,97.12
2023-08-07T20:33:06.866Z,97.10
2023-08-07T20:35:38.446Z,96.93
2023-08-07T20:38:10.151Z,97.28
2023-08-07T20:40:41.741Z,97.34
2023-08-07T20:43:13.432Z,97.14
2023-08-07T20:45:45.946Z,97.03
2023-08-07T20:48:18.771Z,96.92
2023-08-07T20:50:50.456Z,97.11
2023-08-07T20:53:23.270Z,97.02
2023-08-07T20:55:54.919Z,97.00
2023-08-07T20:58:26.820Z,97.09
2023-08-07T21:00:58.861Z,97.11
2023-08-07T21:03:30.716Z,97.15
2023-08-07T21:06:02.726Z,97.24
2023-08-07T21:08:34.393Z,97.05
2023-08-07T21:11:05.964Z,97.08
2023-08-07T21:13:39.075Z,97.34
2023-08-07T21:16:10.779Z,97.26
2023-08-07T21:18:42.462Z,97.18
2023-08-07T21:21:15.099Z,97.12
2023-08-07T21:23:46.794Z,97.18
2023-08-07T21:26:19.748Z,96.99
2023-08-07T21:28:51.486Z,97.02
2023-08-07T21:31:23.305Z,97.03
2023-08-07T21:33:55.880Z,96.94
2023-08-07T21:36:27.948Z,97.02
2023-08-07T21:38:59.948Z,97.22
2023-08-07T21:41:32.114Z,97.12
2023-08-07T21:44:03.842Z,97.24
2023-08-07T21:46:35.530Z,97.18
2023-08-07T21:49:14.969Z,97.35
2023-08-07T21:51:47.128Z,97.34
2023-08-07T21:54:18.846Z,97.40
2023-08-07T21:56:54.911Z,97.45
2023-08-07T22:02:55.632Z,97.41
2023-08-07T22:05:30.467Z,97.55
2023-08-07T22:08:02.567Z,97.50
2023-08-07T22:10:34.273Z,97.37
2023-08-07T22:13:07.099Z,97.61
2023-08-07T22:15:39.042Z,97.57
2023-08-07T22:18:10.622Z,97.68
2023-08-07T22:20:43.279Z,97.51
2023-08-07T22:23:14.837Z,97.40
2023-08-07T22:25:46.451Z,97.71
2023-08-07T22:28:18.120Z,97.87
2023-08-07T22:30:49.794Z,97.81
2023-08-07T22:33:21.453Z,97.82
2023-08-07T22:35:53.219Z,97.88
2023-08-07T22:38:24.822Z,98.03
2023-08-07T22:40:56.675Z,98.20
2023-08-07T22:43:28.307Z,98.08
2023-08-07T22:46:00.303Z,98.20
2023-08-07T22:48:33.037Z,98.21
2023-08-07T22:51:05.995Z,98.16
2023-08-07T22:53:37.706Z,97.81
2023-08-07T22:56:09.242Z,98.21
2023-08-07T22:58:40.868Z,98.15
2023-08-07T23:01:12.450Z,98.07
2023-08-07T23:03:44.004Z,98.10
2023-08-07T23:06:14.145Z,98.18
2023-08-07T23:08:45.672Z,98.42
2023-08-07T23:11:17.288Z,98.44
2023-08-07T23:13:48.918Z,98.46
2023-08-07T23:16:20.682Z,98.48
2023-08-07T23:18:52.655Z,98.43
2023-08-07T23:21:24.136Z,98.15
2023-08-07T23:23:54.287Z,98.11
2023-08-07T23:26:25.850Z,98.07
2023-08-07T23:28:56.105Z,98.33
2023-08-07T23:31:28.717Z,98.23
2023-08-07T23:34:00.354Z,98.18
2023-08-07T23:36:32.186Z,98.21
2023-08-07T23:39:04.101Z,98.18
2023-08-07T23:41:35.659Z,98.28
2023-08-07T23:44:05.878Z,98.14
2023-08-07T23:46:37.435Z,98.28
2023-08-07T23:49:09.101Z,98.49
2023-08-07T23:51:41.767Z,98.53
2023-08-07T23:54:13.379Z,98.47
2023-08-07T23:56:45.015Z,98.30
2023-08-07T23:59:16.645Z,98.31
